sensor_id;sensor_type;location;lat;lon;timestamp;pressure;altitude;pressure_sealevel;temperature;humidity
41596;BME280;27283;52.504;13.358;2023-11-21T00:01:25;100457.53;;;8.50;100.00
41596;BME280;27283;52.504;13.358;2023-11-21T00:03:58;100461.28;;;8.40;100.00
41596;BME280;27283;52.504;13.358;2023-11-21T00:06:31;100464.75;;;8.58;100.00
41596;BME280;27283;52.504;13.358;2023-11-21T00:09:03;100460.59;;;8.64;100.00
41596;BME280;27283;52.504;13.358;2023-11-21T00:11:40;100471.59;;;8.52;100.00
41596;BME280;27283;52.504;13.358;2023-11-21T00:14:14;100469.81;;;7.91;100.00
41596;BME280;27283;52.504;13.358;2023-11-21T00:16:46;100477.34;;;7.69;100.00
41596;BME280;27283;52.504;13.358;2023-11-21T00:19:19;100476.66;;;7.85;100.00
41596;BME280;27283;52.504;13.358;2023-11-21T00:22:12;100478.88;;;7.54;100.00
41596;BME280;27283;52.504;13.358;2023-11-21T00:24:45;100484.28;;;7.62;100.00
41596;BME280;27283;52.504;13.358;2023-11-21T00:27:20;100485.81;;;7.83;100.00
41596;BME280;27283;52.504;13.358;2023-11-21T00:29:53;100480.16;;;7.50;100.00
41596;BME280;27283;52.504;13.358;2023-11-21T00:32:26;100482.78;;;7.14;100.00
41596;BME280;27283;52.504;13.358;2023-11-21T00:34:58;100483.53;;;7.34;100.00
41596;BME280;27283;52.504;13.358;2023-11-21T00:37:31;100497.31;;;7.11;100.00
41596;BME280;27283;52.504;13.358;2023-11-21T00:40:05;100489.44;;;7.09;100.00
41596;BME280;27283;52.504;13.358;2023-11-21T00:42:40;100500.03;;;6.73;100.00
41596;BME280;27283;52.504;13.358;2023-11-21T00:45:13;100503.25;;;7.05;100.00
41596;BME280;27283;52.504;13.358;2023-11-21T00:47:45;100509.16;;;7.08;100.00
41596;BME280;27283;52.504;13.358;2023-11-21T00:50:15;100509.16;;;7.08;100.00
41596;BME280;27283;52.504;13.358;2023-11-21T00:52:48;100522.63;;;6.89;100.00
41596;BME280;27283;52.504;13.358;2023-11-21T00:55:21;100514.09;;;6.76;100.00
41596;BME280;27283;52.504;13.358;2023-11-21T00:58:01;100512.91;;;6.88;100.00
41596;BME280;27283;52.504;13.358;2023-11-21T01:00:38;100519.09;;;6.88;100.00
41596;BME280;27283;52.504;13.358;2023-11-21T01:03:13;100512.22;;;7.14;100.00
41596;BME280;27283;52.504;13.358;2023-11-21T01:05:47;100523.28;;;6.91;100.00
41596;BME280;27283;52.504;13.358;2023-11-21T01:08:22;100534.44;;;6.86;100.00
41596;BME280;27283;52.504;13.358;2023-11-21T01:10:58;100533.97;;;6.63;100.00
41596;BME280;27283;52.504;13.358;2023-11-21T01:13:34;100539.31;;;6.63;100.00
41596;BME280;27283;52.504;13.358;2023-11-21T01:16:08;100537.59;;;6.72;100.00
41596;BME280;27283;52.504;13.358;2023-11-21T01:18:42;100543.91;;;6.71;100.00
41596;BME280;27283;52.504;13.358;2023-11-21T01:21:17;100540.47;;;6.41;100.00
41596;BME280;27283;52.504;13.358;2023-11-21T01:23:51;100541.09;;;6.72;100.00
41596;BME280;27283;52.504;13.358;2023-11-21T01:26:25;100555.03;;;6.66;100.00
41596;BME280;27283;52.504;13.358;2023-11-21T01:29:01;100562.78;;;6.60;100.00
41596;BME280;27283;52.504;13.358;2023-11-21T01:31:47;100561.06;;;6.68;100.00
41596;BME280;27283;52.504;13.358;2023-11-21T01:34:22;100572.88;;;6.76;100.00
41596;BME280;27283;52.504;13.358;2023-11-21T01:36:56;100559.66;;;6.64;100.00
41596;BME280;27283;52.504;13.358;2023-11-21T01:39:30;100561.13;;;6.49;100.00
41596;BME280;27283;52.504;13.358;2023-11-21T01:42:05;100566.75;;;6.55;100.00
41596;BME280;27283;52.504;13.358;2023-11-21T01:44:42;100563.34;;;6.53;100.00
41596;BME280;27283;52.504;13.358;2023-11-21T01:47:17;100559.47;;;6.85;100.00
41596;BME280;27283;52.504;13.358;2023-11-21T01:49:51;100572.59;;;6.79;100.00
41596;BME280;27283;52.504;13.358;2023-11-21T01:52:26;100568.19;;;6.87;100.00
41596;BME280;27283;52.504;13.358;2023-11-21T01:55:00;100572.28;;;6.82;100.00
41596;BME280;27283;52.504;13.358;2023-11-21T01:57:35;100577.84;;;6.61;100.00
41596;BME280;27283;52.504;13.358;2023-11-21T02:00:13;100582.63;;;6.47;100.00
41596;BME280;27283;52.504;13.358;2023-11-21T02:02:53;100578.31;;;6.84;100.00
41596;BME280;27283;52.504;13.358;2023-11-21T02:05:27;100584.84;;;6.71;100.00
41596;BME280;27283;52.504;13.358;2023-11-21T02:08:01;100583.22;;;6.51;100.00
41596;BME280;27283;52.504;13.358;2023-11-21T02:10:36;100595.28;;;6.35;100.00
41596;BME280;27283;52.504;13.358;2023-11-21T02:13:11;100587.16;;;6.47;100.00
41596;BME280;27283;52.504;13.358;2023-11-21T02:15:48;100594.59;;;6.33;100.00
41596;BME280;27283;52.504;13.358;2023-11-21T02:18:24;100597.28;;;6.33;100.00
41596;BME280;27283;52.504;13.358;2023-11-21T02:20:59;100599.53;;;6.28;100.00
41596;BME280;27283;52.504;13.358;2023-11-21T02:23:35;100601.78;;;6.13;100.00
41596;BME280;27283;52.504;13.358;2023-11-21T02:26:12;100603.16;;;6.37;100.00
41596;BME280;27283;52.504;13.358;2023-11-21T02:28:50;100603.75;;;6.21;100.00
41596;BME280;27283;52.504;13.358;2023-11-21T02:31:24;100602.78;;;6.42;100.00
41596;BME280;27283;52.504;13.358;2023-11-21T02:33:57;100606.84;;;6.36;100.00
41596;BME280;27283;52.504;13.358;2023-11-21T02:36:31;100601.38;;;6.18;100.00
41596;BME280;27283;52.504;13.358;2023-11-21T02:39:08;100603.03;;;6.48;100.00
41596;BME280;27283;52.504;13.358;2023-11-21T02:41:42;100607.41;;;6.49;100.00
41596;BME280;27283;52.504;13.358;2023-11-21T02:44:17;100615.66;;;6.56;100.00
41596;BME280;27283;52.504;13.358;2023-11-21T02:46:51;100611.19;;;6.17;100.00
41596;BME280;27283;52.504;13.358;2023-11-21T02:49:25;100615.41;;;6.39;100.00
41596;BME280;27283;52.504;13.358;2023-11-21T02:51:58;100610.91;;;6.40;100.00
41596;BME280;27283;52.504;13.358;2023-11-21T02:54:38;100610.91;;;6.30;100.00
41596;BME280;27283;52.504;13.358;2023-11-21T02:57:11;100611.47;;;6.44;100.00
41596;BME280;27283;52.504;13.358;2023-11-21T02:59:45;100610.91;;;6.30;100.00
41596;BME280;27283;52.504;13.358;2023-11-21T03:02:18;100613.84;;;6.17;100.00
41596;BME280;27283;52.504;13.358;2023-11-21T03:04:55;100616.38;;;6.38;100.00
41596;BME280;27283;52.504;13.358;2023-11-21T03:07:28;100628.47;;;6.23;100.00
41596;BME280;27283;52.504;13.358;2023-11-21T03:10:05;100629.75;;;5.99;100.00
41596;BME280;27283;52.504;13.358;2023-11-21T03:12:41;100628.91;;;6.09;100.00
41596;BME280;27283;52.504;13.358;2023-11-21T03:15:15;100640.31;;;6.20;100.00
41596;BME280;27283;52.504;13.358;2023-11-21T03:17:49;100628.19;;;6.07;100.00
41596;BME280;27283;52.504;13.358;2023-11-21T03:20:23;100636.19;;;6.07;100.00
41596;BME280;27283;52.504;13.358;2023-11-21T03:22:56;100634.81;;;6.02;100.00
41596;BME280;27283;52.504;13.358;2023-11-21T03:25:37;100640.69;;;6.16;100.00
41596;BME280;27283;52.504;13.358;2023-11-21T03:28:10;100639.00;;;6.05;100.00
41596;BME280;27283;52.504;13.358;2023-11-21T03:30:44;100649.41;;;6.08;100.00
41596;BME280;27283;52.504;13.358;2023-11-21T03:33:18;100657.84;;;6.13;100.00
41596;BME280;27283;52.504;13.358;2023-11-21T03:35:52;100661.56;;;5.91;100.00
41596;BME280;27283;52.504;13.358;2023-11-21T03:38:26;100665.59;;;5.66;100.00
41596;BME280;27283;52.504;13.358;2023-11-21T03:41:06;100666.41;;;5.97;100.00
41596;BME280;27283;52.504;13.358;2023-11-21T03:43:40;100672.66;;;5.86;100.00
41596;BME280;27283;52.504;13.358;2023-11-21T03:46:15;100666.09;;;5.91;100.00
41596;BME280;27283;52.504;13.358;2023-11-21T03:48:48;100667.59;;;5.83;100.00
41596;BME280;27283;52.504;13.358;2023-11-21T03:51:22;100676.66;;;6.02;100.00
41596;BME280;27283;52.504;13.358;2023-11-21T03:53:56;100679.91;;;6.06;98.21
41596;BME280;27283;52.504;13.358;2023-11-21T03:56:32;100681.50;;;5.77;98.74
41596;BME280;27283;52.504;13.358;2023-11-21T03:59:06;100686.38;;;5.62;98.98
41596;BME280;27283;52.504;13.358;2023-11-21T04:01:40;100686.09;;;5.65;99.31
41596;BME280;27283;52.504;13.358;2023-11-21T04:04:14;100696.59;;;5.57;97.55
41596;BME280;27283;52.504;13.358;2023-11-21T04:06:48;100698.94;;;5.81;96.04
41596;BME280;27283;52.504;13.358;2023-11-21T04:09:22;100702.06;;;5.96;95.33
41596;BME280;27283;52.504;13.358;2023-11-21T04:11:59;100698.78;;;5.83;96.23
41596;BME280;27283;52.504;13.358;2023-11-21T04:14:33;100704.00;;;5.54;98.02
41596;BME280;27283;52.504;13.358;2023-11-21T04:17:08;100705.88;;;5.32;99.54
41596;BME280;27283;52.504;13.358;2023-11-21T04:19:42;100708.72;;;5.71;99.68
41596;BME280;27283;52.504;13.358;2023-11-21T04:22:17;100712.94;;;5.74;98.96
41596;BME280;27283;52.504;13.358;2023-11-21T04:24:50;100725.47;;;5.42;97.93
41596;BME280;27283;52.504;13.358;2023-11-21T04:27:29;100725.28;;;5.65;97.03
41596;BME280;27283;52.504;13.358;2023-11-21T04:30:03;100726.66;;;5.59;98.07
41596;BME280;27283;52.504;13.358;2023-11-21T04:32:40;100721.00;;;5.53;98.58
41596;BME280;27283;52.504;13.358;2023-11-21T04:35:13;100725.19;;;5.45;99.11
41596;BME280;27283;52.504;13.358;2023-11-21T04:37:47;100727.31;;;5.52;99.02
41596;BME280;27283;52.504;13.358;2023-11-21T04:40:21;100728.47;;;5.59;99.13
41596;BME280;27283;52.504;13.358;2023-11-21T04:42:59;100733.97;;;5.67;98.54
41596;BME280;27283;52.504;13.358;2023-11-21T04:45:34;100733.81;;;5.59;97.02
41596;BME280;27283;52.504;13.358;2023-11-21T04:48:09;100738.13;;;5.91;95.39
41596;BME280;27283;52.504;13.358;2023-11-21T04:50:46;100746.84;;;6.53;89.92
41596;BME280;27283;52.504;13.358;2023-11-21T04:53:20;100746.00;;;6.62;89.34
41596;BME280;27283;52.504;13.358;2023-11-21T04:55:54;100745.28;;;6.50;90.28
41596;BME280;27283;52.504;13.358;2023-11-21T04:58:31;100744.44;;;6.20;91.76
41596;BME280;27283;52.504;13.358;2023-11-21T05:01:06;100744.72;;;6.56;88.87
41596;BME280;27283;52.504;13.358;2023-11-21T05:03:40;100745.41;;;6.29;90.87
41596;BME280;27283;52.504;13.358;2023-11-21T05:06:18;100756.53;;;6.34;91.28
41596;BME280;27283;52.504;13.358;2023-11-21T05:08:52;100756.22;;;6.18;90.73
41596;BME280;27283;52.504;13.358;2023-11-21T05:11:25;100757.09;;;5.88;91.30
41596;BME280;27283;52.504;13.358;2023-11-21T05:14:02;100767.91;;;5.86;95.37
41596;BME280;27283;52.504;13.358;2023-11-21T05:16:36;100774.31;;;5.74;92.80
41596;BME280;27283;52.504;13.358;2023-11-21T05:19:10;100775.34;;;6.23;92.68
41596;BME280;27283;52.504;13.358;2023-11-21T05:21:46;100783.28;;;6.03;91.90
41596;BME280;27283;52.504;13.358;2023-11-21T05:24:20;100786.66;;;6.76;87.55
41596;BME280;27283;52.504;13.358;2023-11-21T05:26:53;100789.41;;;6.25;88.84
41596;BME280;27283;52.504;13.358;2023-11-21T05:29:31;100784.03;;;5.32;94.22
41596;BME280;27283;52.504;13.358;2023-11-21T05:32:04;100782.84;;;5.46;95.10
41596;BME280;27283;52.504;13.358;2023-11-21T05:34:39;100788.31;;;5.45;94.37
41596;BME280;27283;52.504;13.358;2023-11-21T05:37:12;100792.81;;;5.44;94.22
41596;BME280;27283;52.504;13.358;2023-11-21T05:39:47;100791.59;;;5.27;94.78
41596;BME280;27283;52.504;13.358;2023-11-21T05:42:21;100796.28;;;5.66;92.11
41596;BME280;27283;52.504;13.358;2023-11-21T05:44:58;100809.91;;;5.00;93.34
41596;BME280;27283;52.504;13.358;2023-11-21T05:47:41;100809.88;;;5.11;93.04
41596;BME280;27283;52.504;13.358;2023-11-21T05:50:17;100814.38;;;5.31;93.82
41596;BME280;27283;52.504;13.358;2023-11-21T05:52:50;100818.78;;;5.21;94.15
41596;BME280;27283;52.504;13.358;2023-11-21T05:55:24;100822.94;;;5.35;93.66
41596;BME280;27283;52.504;13.358;2023-11-21T05:57:58;100817.31;;;5.28;93.75
41596;BME280;27283;52.504;13.358;2023-11-21T06:00:34;100826.53;;;5.24;92.99
41596;BME280;27283;52.504;13.358;2023-11-21T06:03:08;100821.97;;;5.15;92.46
41596;BME280;27283;52.504;13.358;2023-11-21T06:05:43;100826.97;;;5.50;91.69
41596;BME280;27283;52.504;13.358;2023-11-21T06:08:16;100836.47;;;5.43;91.68
41596;BME280;27283;52.504;13.358;2023-11-21T06:10:50;100840.63;;;5.15;92.33
41596;BME280;27283;52.504;13.358;2023-11-21T06:13:24;100847.13;;;5.22;92.33
41596;BME280;27283;52.504;13.358;2023-11-21T06:16:01;100841.88;;;5.00;93.97
41596;BME280;27283;52.504;13.358;2023-11-21T06:18:35;100843.56;;;5.33;92.16
41596;BME280;27283;52.504;13.358;2023-11-21T06:21:09;100849.03;;;4.99;92.56
41596;BME280;27283;52.504;13.358;2023-11-21T06:23:43;100856.88;;;5.12;93.77
41596;BME280;27283;52.504;13.358;2023-11-21T06:26:19;100863.47;;;5.29;91.71
41596;BME280;27283;52.504;13.358;2023-11-21T06:28:53;100864.97;;;5.43;90.94
41596;BME280;27283;52.504;13.358;2023-11-21T06:31:30;100875.19;;;5.38;90.58
41596;BME280;27283;52.504;13.358;2023-11-21T06:34:03;100874.53;;;5.13;91.01
41596;BME280;27283;52.504;13.358;2023-11-21T06:36:39;100882.84;;;4.99;91.15
41596;BME280;27283;52.504;13.358;2023-11-21T06:39:12;100885.66;;;4.97;92.52
41596;BME280;27283;52.504;13.358;2023-11-21T06:41:47;100901.31;;;4.68;93.03
41596;BME280;27283;52.504;13.358;2023-11-21T06:44:20;100903.09;;;4.90;91.86
41596;BME280;27283;52.504;13.358;2023-11-21T06:46:57;100905.25;;;4.96;90.71
41596;BME280;27283;52.504;13.358;2023-11-21T06:49:31;100906.72;;;5.00;91.44
41596;BME280;27283;52.504;13.358;2023-11-21T06:52:05;100909.81;;;5.17;89.93
41596;BME280;27283;52.504;13.358;2023-11-21T06:54:39;100917.00;;;4.93;90.20
41596;BME280;27283;52.504;13.358;2023-11-21T06:57:18;100905.69;;;5.12;89.06
41596;BME280;27283;52.504;13.358;2023-11-21T06:59:52;100915.84;;;5.19;88.21
41596;BME280;27283;52.504;13.358;2023-11-21T07:02:31;100914.91;;;5.08;88.97
41596;BME280;27283;52.504;13.358;2023-11-21T07:05:05;100912.34;;;5.18;87.67
41596;BME280;27283;52.504;13.358;2023-11-21T07:07:39;100914.19;;;5.39;87.02
41596;BME280;27283;52.504;13.358;2023-11-21T07:10:13;100911.28;;;5.09;88.25
41596;BME280;27283;52.504;13.358;2023-11-21T07:12:47;100913.25;;;5.07;90.60
41596;BME280;27283;52.504;13.358;2023-11-21T07:15:23;100913.50;;;5.04;90.71
41596;BME280;27283;52.504;13.358;2023-11-21T07:18:01;100920.72;;;4.70;91.87
41596;BME280;27283;52.504;13.358;2023-11-21T07:20:38;100929.81;;;5.00;90.48
41596;BME280;27283;52.504;13.358;2023-11-21T07:23:12;100929.78;;;4.67;91.20
41596;BME280;27283;52.504;13.358;2023-11-21T07:25:45;100936.66;;;4.92;90.94
41596;BME280;27283;52.504;13.358;2023-11-21T07:28:19;100930.00;;;5.30;88.06
41596;BME280;27283;52.504;13.358;2023-11-21T07:30:52;100929.53;;;4.70;91.36
41596;BME280;27283;52.504;13.358;2023-11-21T07:33:34;100932.41;;;4.90;90.57
41596;BME280;27283;52.504;13.358;2023-11-21T07:36:08;100939.31;;;4.92;90.83
41596;BME280;27283;52.504;13.358;2023-11-21T07:38:46;100931.41;;;5.02;90.17
41596;BME280;27283;52.504;13.358;2023-11-21T07:41:20;100950.69;;;5.06;89.59
41596;BME280;27283;52.504;13.358;2023-11-21T07:44:00;100957.78;;;5.17;88.47
41596;BME280;27283;52.504;13.358;2023-11-21T07:46:34;100949.75;;;4.73;89.84
41596;BME280;27283;52.504;13.358;2023-11-21T07:49:11;100950.69;;;5.06;89.15
41596;BME280;27283;52.504;13.358;2023-11-21T07:51:50;100953.81;;;5.11;90.43
41596;BME280;27283;52.504;13.358;2023-11-21T07:54:24;100950.31;;;5.10;89.08
41596;BME280;27283;52.504;13.358;2023-11-21T07:56:58;100953.47;;;4.93;88.50
41596;BME280;27283;52.504;13.358;2023-11-21T07:59:34;100956.66;;;5.30;88.03
41596;BME280;27283;52.504;13.358;2023-11-21T08:02:08;100958.63;;;5.17;88.04
41596;BME280;27283;52.504;13.358;2023-11-21T08:04:45;100965.59;;;5.41;87.42
41596;BME280;27283;52.504;13.358;2023-11-21T08:07:20;100963.94;;;5.28;89.41
41596;BME280;27283;52.504;13.358;2023-11-21T08:09:54;100981.16;;;5.13;88.22
41596;BME280;27283;52.504;13.358;2023-11-21T08:12:29;100987.75;;;5.41;88.13
41596;BME280;27283;52.504;13.358;2023-11-21T08:15:03;100982.88;;;5.46;87.31
41596;BME280;27283;52.504;13.358;2023-11-21T08:17:37;100991.78;;;5.36;88.81
41596;BME280;27283;52.504;13.358;2023-11-21T08:20:14;100994.41;;;5.47;87.74
41596;BME280;27283;52.504;13.358;2023-11-21T08:22:49;100992.84;;;5.44;87.18
41596;BME280;27283;52.504;13.358;2023-11-21T08:25:23;100989.81;;;5.70;85.36
41596;BME280;27283;52.504;13.358;2023-11-21T08:27:57;100993.78;;;5.55;85.81
41596;BME280;27283;52.504;13.358;2023-11-21T08:30:30;100991.09;;;5.55;86.89
41596;BME280;27283;52.504;13.358;2023-11-21T08:33:05;101001.66;;;5.56;85.97
41596;BME280;27283;52.504;13.358;2023-11-21T08:35:41;101000.13;;;5.42;85.50
41596;BME280;27283;52.504;13.358;2023-11-21T08:38:16;101001.16;;;5.30;86.09
41596;BME280;27283;52.504;13.358;2023-11-21T08:40:49;101003.63;;;5.43;84.48
41596;BME280;27283;52.504;13.358;2023-11-21T08:43:24;101002.53;;;5.45;84.86
41596;BME280;27283;52.504;13.358;2023-11-21T08:46:01;101010.53;;;5.45;84.39
41596;BME280;27283;52.504;13.358;2023-11-21T08:48:36;101011.25;;;5.47;84.73
41596;BME280;27283;52.504;13.358;2023-11-21T08:51:12;101018.16;;;5.06;87.22
41596;BME280;27283;52.504;13.358;2023-11-21T08:53:45;101015.47;;;5.06;88.26
41596;BME280;27283;52.504;13.358;2023-11-21T08:56:19;101024.09;;;4.87;87.24
41596;BME280;27283;52.504;13.358;2023-11-21T08:58:52;101024.22;;;4.63;88.19
41596;BME280;27283;52.504;13.358;2023-11-21T09:01:26;101022.16;;;5.12;86.06
41596;BME280;27283;52.504;13.358;2023-11-21T09:04:02;101031.81;;;5.24;87.43
41596;BME280;27283;52.504;13.358;2023-11-21T09:06:38;101039.34;;;4.96;86.56
41596;BME280;27283;52.504;13.358;2023-11-21T09:09:11;101042.97;;;5.07;86.51
41596;BME280;27283;52.504;13.358;2023-11-21T09:11:44;101030.25;;;4.99;86.96
41596;BME280;27283;52.504;13.358;2023-11-21T09:14:18;101051.09;;;5.17;85.40
41596;BME280;27283;52.504;13.358;2023-11-21T09:16:51;101053.72;;;5.28;83.98
41596;BME280;27283;52.504;13.358;2023-11-21T09:19:25;101061.50;;;5.20;84.37
41596;BME280;27283;52.504;13.358;2023-11-21T09:22:00;101068.06;;;4.93;86.42
41596;BME280;27283;52.504;13.358;2023-11-21T09:24:34;101064.44;;;4.94;87.03
41596;BME280;27283;52.504;13.358;2023-11-21T09:27:09;101064.19;;;4.97;87.25
41596;BME280;27283;52.504;13.358;2023-11-21T09:29:41;101068.31;;;4.90;88.53
41596;BME280;27283;52.504;13.358;2023-11-21T09:32:14;101071.81;;;5.02;89.19
41596;BME280;27283;52.504;13.358;2023-11-21T09:34:48;101077.75;;;4.94;87.08
41596;BME280;27283;52.504;13.358;2023-11-21T09:37:24;101078.81;;;5.37;85.71
41596;BME280;27283;52.504;13.358;2023-11-21T09:39:57;101081.72;;;5.33;86.14
41596;BME280;27283;52.504;13.358;2023-11-21T09:42:37;101090.31;;;5.48;84.60
41596;BME280;27283;52.504;13.358;2023-11-21T09:45:17;101084.56;;;5.64;82.55
41596;BME280;27283;52.504;13.358;2023-11-21T09:47:53;101090.19;;;5.39;83.03
41596;BME280;27283;52.504;13.358;2023-11-21T09:50:27;101089.13;;;4.96;85.92
41596;BME280;27283;52.504;13.358;2023-11-21T09:53:12;101094.47;;;5.30;86.14
41596;BME280;27283;52.504;13.358;2023-11-21T09:55:48;101100.41;;;4.88;89.47
41596;BME280;27283;52.504;13.358;2023-11-21T09:58:22;101101.00;;;5.14;88.76
41596;BME280;27283;52.504;13.358;2023-11-21T10:00:57;101109.47;;;4.74;88.57
41596;BME280;27283;52.504;13.358;2023-11-21T10:03:35;101111.88;;;4.66;87.80
41596;BME280;27283;52.504;13.358;2023-11-21T10:06:09;101104.13;;;4.63;88.16
41596;BME280;27283;52.504;13.358;2023-11-21T10:08:46;101099.31;;;5.13;86.24
41596;BME280;27283;52.504;13.358;2023-11-21T10:11:24;101110.22;;;5.22;85.49
41596;BME280;27283;52.504;13.358;2023-11-21T10:14:00;101108.78;;;5.06;85.72
41596;BME280;27283;52.504;13.358;2023-11-21T10:16:33;101115.06;;;5.17;85.65
41596;BME280;27283;52.504;13.358;2023-11-21T10:19:09;101118.94;;;5.12;86.23
41596;BME280;27283;52.504;13.358;2023-11-21T10:21:45;101115.56;;;5.10;85.81
41596;BME280;27283;52.504;13.358;2023-11-21T10:24:21;101119.44;;;5.06;86.70
41596;BME280;27283;52.504;13.358;2023-11-21T10:26:53;101114.94;;;4.95;87.24
41596;BME280;27283;52.504;13.358;2023-11-21T10:29:29;101112.34;;;4.49;90.22
41596;BME280;27283;52.504;13.358;2023-11-21T10:32:05;101113.81;;;4.75;90.32
41596;BME280;27283;52.504;13.358;2023-11-21T10:34:38;101114.69;;;5.10;88.05
41596;BME280;27283;52.504;13.358;2023-11-21T10:37:11;101114.94;;;4.95;88.13
41596;BME280;27283;52.504;13.358;2023-11-21T10:39:50;101119.34;;;4.50;91.14
41596;BME280;27283;52.504;13.358;2023-11-21T10:42:23;101138.13;;;4.59;92.00
41596;BME280;27283;52.504;13.358;2023-11-21T10:44:56;101132.13;;;4.91;89.49
41596;BME280;27283;52.504;13.358;2023-11-21T10:47:31;101129.69;;;4.66;90.60
41596;BME280;27283;52.504;13.358;2023-11-21T10:50:06;101133.09;;;4.90;89.70
41596;BME280;27283;52.504;13.358;2023-11-21T10:52:41;101140.13;;;4.91;90.11
41596;BME280;27283;52.504;13.358;2023-11-21T10:55:20;101146.28;;;4.81;90.28
41596;BME280;27283;52.504;13.358;2023-11-21T10:57:54;101148.81;;;4.71;91.61
41596;BME280;27283;52.504;13.358;2023-11-21T11:00:34;101142.31;;;4.86;91.84
41596;BME280;27283;52.504;13.358;2023-11-21T11:03:09;101148.03;;;4.46;94.31
41596;BME280;27283;52.504;13.358;2023-11-21T11:05:48;101151.03;;;4.41;94.56
41596;BME280;27283;52.504;13.358;2023-11-21T11:08:25;101152.94;;;4.64;94.33
41596;BME280;27283;52.504;13.358;2023-11-21T11:11:05;101153.19;;;4.72;93.87
41596;BME280;27283;52.504;13.358;2023-11-21T11:13:46;101155.72;;;4.73;93.77
41596;BME280;27283;52.504;13.358;2023-11-21T11:16:38;101152.53;;;4.57;93.42
41596;BME280;27283;52.504;13.358;2023-11-21T11:19:18;101157.16;;;4.66;92.56
41596;BME280;27283;52.504;13.358;2023-11-21T11:22:03;101155.94;;;4.23;95.54
41596;BME280;27283;52.504;13.358;2023-11-21T11:25:05;101165.47;;;4.50;94.77
41596;BME280;27283;52.504;13.358;2023-11-21T11:27:59;101166.13;;;4.65;94.75
41596;BME280;27283;52.504;13.358;2023-11-21T11:30:53;101176.72;;;4.18;95.68
41596;BME280;27283;52.504;13.358;2023-11-21T11:33:45;101181.19;;;3.94;97.32
41596;BME280;27283;52.504;13.358;2023-11-21T11:36:35;101185.72;;;4.04;96.66
41596;BME280;27283;52.504;13.358;2023-11-21T11:39:28;101185.50;;;4.07;97.44
41596;BME280;27283;52.504;13.358;2023-11-21T11:42:07;101191.91;;;4.29;95.68
41596;BME280;27283;52.504;13.358;2023-11-21T11:44:52;101198.63;;;4.22;94.94
41596;BME280;27283;52.504;13.358;2023-11-21T11:47:32;101194.00;;;4.13;95.78
41596;BME280;27283;52.504;13.358;2023-11-21T11:50:10;101198.91;;;4.30;94.59
41596;BME280;27283;52.504;13.358;2023-11-21T11:52:49;101205.72;;;4.10;96.67
41596;BME280;27283;52.504;13.358;2023-11-21T11:56:48;101217.59;;;4.41;93.92
41596;BME280;27283;52.504;13.358;2023-11-21T11:59:24;101214.88;;;4.54;92.69
41596;BME280;27283;52.504;13.358;2023-11-21T12:02:13;101219.22;;;4.20;94.10
41596;BME280;27283;52.504;13.358;2023-11-21T12:04:46;101223.84;;;4.53;93.38
41596;BME280;27283;52.504;13.358;2023-11-21T12:07:20;101231.00;;;4.64;91.64
41596;BME280;27283;52.504;13.358;2023-11-21T12:09:54;101225.47;;;4.43;91.75
41596;BME280;27283;52.504;13.358;2023-11-21T12:12:30;101235.31;;;4.05;92.67
41596;BME280;27283;52.504;13.358;2023-11-21T12:15:05;101238.00;;;4.30;92.70
41596;BME280;27283;52.504;13.358;2023-11-21T12:17:38;101237.53;;;4.36;91.28
41596;BME280;27283;52.504;13.358;2023-11-21T12:20:12;101247.00;;;4.40;90.14
41596;BME280;27283;52.504;13.358;2023-11-21T12:22:50;101247.84;;;4.40;90.58
41596;BME280;27283;52.504;13.358;2023-11-21T12:25:24;101249.88;;;4.13;91.32
41596;BME280;27283;52.504;13.358;2023-11-21T12:28:01;101258.59;;;4.15;91.97
41596;BME280;27283;52.504;13.358;2023-11-21T12:30:36;101257.19;;;4.22;92.73
41596;BME280;27283;52.504;13.358;2023-11-21T12:33:09;101260.66;;;4.35;92.78
41596;BME280;27283;52.504;13.358;2023-11-21T12:35:47;101264.81;;;4.64;92.25
41596;BME280;27283;52.504;13.358;2023-11-21T12:38:21;101267.03;;;4.46;93.70
41596;BME280;27283;52.504;13.358;2023-11-21T12:40:54;101273.34;;;4.32;94.91
41596;BME280;27283;52.504;13.358;2023-11-21T12:43:30;101269.91;;;4.42;95.68
41596;BME280;27283;52.504;13.358;2023-11-21T12:46:05;101268.25;;;4.53;93.90
41596;BME280;27283;52.504;13.358;2023-11-21T12:48:39;101273.41;;;4.19;96.07
41596;BME280;27283;52.504;13.358;2023-11-21T12:51:15;101279.84;;;3.90;96.65
41596;BME280;27283;52.504;13.358;2023-11-21T12:53:49;101284.22;;;3.92;95.16
41596;BME280;27283;52.504;13.358;2023-11-21T12:56:22;101275.63;;;4.12;92.94
41596;BME280;27283;52.504;13.358;2023-11-21T12:58:59;101279.78;;;4.16;94.92
41596;BME280;27283;52.504;13.358;2023-11-21T13:01:34;101282.44;;;4.16;93.60
41596;BME280;27283;52.504;13.358;2023-11-21T13:04:08;101287.69;;;4.42;93.14
41596;BME280;27283;52.504;13.358;2023-11-21T13:06:43;101289.00;;;4.36;94.04
41596;BME280;27283;52.504;13.358;2023-11-21T13:09:16;101298.09;;;4.21;94.23
41596;BME280;27283;52.504;13.358;2023-11-21T13:12:00;101298.44;;;4.40;93.35
41596;BME280;27283;52.504;13.358;2023-11-21T13:14:39;101298.22;;;4.68;90.87
41596;BME280;27283;52.504;13.358;2023-11-21T13:17:16;101308.41;;;4.25;91.46
41596;BME280;27283;52.504;13.358;2023-11-21T13:19:52;101299.44;;;4.26;91.35
41596;BME280;27283;52.504;13.358;2023-11-21T13:22:28;101306.78;;;3.99;91.09
41596;BME280;27283;52.504;13.358;2023-11-21T13:25:02;101318.31;;;4.23;92.13
41596;BME280;27283;52.504;13.358;2023-11-21T13:27:37;101315.94;;;3.95;92.91
41596;BME280;27283;52.504;13.358;2023-11-21T13:30:16;101318.06;;;3.77;93.32
41596;BME280;27283;52.504;13.358;2023-11-21T13:32:55;101322.13;;;3.82;93.88